createdAt,value
2022-09-27T00:02:00.550Z,99.99
2022-09-27T00:07:23.418Z,99.99
2022-09-27T00:12:16.332Z,99.99
2022-09-27T00:17:16.258Z,99.99
2022-09-27T00:22:16.193Z,99.99
2022-09-27T00:27:16.954Z,99.99
2022-09-27T00:32:16.064Z,99.99
2022-09-27T00:37:15.981Z,99.99
2022-09-27T00:42:15.911Z,99.99
2022-09-27T00:47:15.843Z,99.99
2022-09-27T00:52:15.816Z,99.99
2022-09-27T00:57:15.736Z,99.99
2022-09-27T01:02:15.739Z,99.99
2022-09-27T01:07:15.598Z,99.99
2022-09-27T01:12:15.508Z,99.99
2022-09-27T01:17:15.998Z,99.99
2022-09-27T01:22:15.377Z,99.99
2022-09-27T01:27:15.329Z,99.99
2022-09-27T01:32:17.117Z,99.99
2022-09-27T01:37:16.357Z,99.99
2022-09-27T01:42:19.844Z,99.99
2022-09-27T01:47:16.038Z,99.99
2022-09-27T01:52:14.982Z,99.99
2022-09-27T01:57:14.934Z,99.99
2022-09-27T02:02:14.892Z,99.99
2022-09-27T02:07:14.757Z,99.99
2022-09-27T02:12:14.707Z,99.99
2022-09-27T02:17:14.638Z,99.99
2022-09-27T02:22:14.555Z,99.99
2022-09-27T02:27:14.503Z,99.99
2022-09-27T02:32:14.977Z,99.99
2022-09-27T02:37:14.385Z,99.99
2022-09-27T02:42:14.302Z,99.99
2022-09-27T02:47:14.272Z,99.99
2022-09-27T02:52:14.170Z,99.99
2022-09-27T02:57:14.101Z,99.99
2022-09-27T03:02:14.278Z,99.99
2022-09-27T03:07:13.983Z,99.99
2022-09-27T03:12:13.894Z,99.99
2022-09-27T03:17:13.919Z,99.99
2022-09-27T03:22:13.797Z,99.99
2022-09-27T03:27:13.761Z,99.99
2022-09-27T03:32:13.649Z,99.99
2022-09-27T03:37:13.646Z,99.99
2022-09-27T03:42:13.478Z,99.99
2022-09-27T03:47:13.425Z,99.99
2022-09-27T03:52:13.369Z,99.99
2022-09-27T03:57:13.301Z,99.99
2022-09-27T04:02:13.230Z,99.99
2022-09-27T04:07:13.163Z,99.99
2022-09-27T04:12:13.206Z,99.99
2022-09-27T04:17:21.122Z,99.99
2022-09-27T04:22:14.034Z,99.99
2022-09-27T04:27:13.937Z,99.99
2022-09-27T04:32:14.605Z,99.99
2022-09-27T04:37:13.864Z,99.99
2022-09-27T04:42:13.771Z,99.99
2022-09-27T04:47:13.681Z,99.99
2022-09-27T04:52:13.645Z,99.99
2022-09-27T04:57:13.548Z,99.99
2022-09-27T05:02:13.536Z,99.99
2022-09-27T05:07:13.430Z,99.99
2022-09-27T05:12:13.413Z,99.99
2022-09-27T05:17:13.424Z,99.99
2022-09-27T05:22:13.294Z,99.95
2022-09-27T05:27:13.171Z,99.99
2022-09-27T05:32:13.119Z,99.99
2022-09-27T05:37:13.049Z,99.99
2022-09-27T05:42:12.965Z,99.74
2022-09-27T05:47:13.012Z,99.99
2022-09-27T05:52:16.037Z,99.99
2022-09-27T05:57:12.736Z,99.99
2022-09-27T06:02:12.876Z,99.99
2022-09-27T06:07:12.639Z,99.99
2022-09-27T06:12:12.559Z,99.99
2022-09-27T06:17:12.514Z,99.99
2022-09-27T06:22:12.454Z,98.72
2022-09-27T06:27:12.378Z,99.99
2022-09-27T06:32:12.276Z,98.47
2022-09-27T06:37:12.205Z,96.69
2022-09-27T06:42:12.139Z,96.03
2022-09-27T06:47:12.121Z,94.77
2022-09-27T06:52:12.006Z,91.46
2022-09-27T06:57:11.944Z,89.28
2022-09-27T07:02:11.935Z,77.76
2022-09-27T07:07:11.846Z,74.88
2022-09-27T07:12:11.792Z,79.70
2022-09-27T07:17:11.652Z,78.25
2022-09-27T07:22:11.621Z,80.16
2022-09-27T07:27:11.548Z,77.09
2022-09-27T07:32:11.475Z,75.84
2022-09-27T07:37:11.398Z,78.41
2022-09-27T07:42:11.500Z,82.60
2022-09-27T07:47:11.277Z,84.23
2022-09-27T07:52:11.211Z,81.07
2022-09-27T07:57:11.255Z,85.35
2022-09-27T08:02:11.192Z,82.89
2022-09-27T08:07:14.202Z,76.25
2022-09-27T08:12:10.937Z,76.04
2022-09-27T08:17:10.897Z,78.28
2022-09-27T08:22:10.799Z,78.46
2022-09-27T08:27:11.997Z,80.05
2022-09-27T08:32:10.649Z,78.46
2022-09-27T08:37:10.606Z,78.86
2022-09-27T08:42:10.543Z,75.98
2022-09-27T08:47:10.485Z,75.70
2022-09-27T08:52:10.393Z,78.59
2022-09-27T08:57:10.341Z,78.83
2022-09-27T09:02:10.326Z,80.09
2022-09-27T09:07:10.179Z,80.88
2022-09-27T09:12:10.101Z,81.23
2022-09-27T09:17:10.059Z,81.46
2022-09-27T09:22:10.005Z,82.83
2022-09-27T09:27:09.982Z,84.69
2022-09-27T09:32:09.895Z,79.59
2022-09-27T09:37:09.773Z,77.48
2022-09-27T09:42:09.702Z,77.20
2022-09-27T09:47:09.670Z,73.97
2022-09-27T09:52:09.766Z,72.08
2022-09-27T09:57:09.518Z,75.20
2022-09-27T10:02:09.532Z,75.57
2022-09-27T10:07:09.369Z,75.60
2022-09-27T10:12:09.334Z,78.46
2022-09-27T10:17:09.239Z,76.76
2022-09-27T10:22:09.189Z,77.07
2022-09-27T10:27:09.101Z,73.50
2022-09-27T10:32:09.084Z,70.62
2022-09-27T10:37:09.004Z,70.49
2022-09-27T10:42:08.919Z,67.55
2022-09-27T10:47:08.828Z,67.92
2022-09-27T10:52:08.793Z,69.07
2022-09-27T10:57:08.708Z,69.78
2022-09-27T11:02:08.646Z,71.97
2022-09-27T11:07:08.571Z,68.66
2022-09-27T11:12:08.507Z,58.02
2022-09-27T11:17:08.442Z,54.63
2022-09-27T11:22:08.355Z,58.65
2022-09-27T11:27:08.283Z,60.77
2022-09-27T11:32:08.204Z,58.06
2022-09-27T11:37:08.154Z,64.31
2022-09-27T11:42:08.121Z,68.35
2022-09-27T11:47:08.137Z,69.37
2022-09-27T11:52:08.027Z,69.06
2022-09-27T11:57:07.892Z,68.86
2022-09-27T12:02:07.909Z,69.70
2022-09-27T12:07:07.762Z,68.76
2022-09-27T12:12:07.669Z,67.80
2022-09-27T12:17:07.614Z,72.96
2022-09-27T12:22:07.557Z,77.51
2022-09-27T12:27:07.470Z,81.11
2022-09-27T12:32:07.518Z,80.05
2022-09-27T12:37:07.342Z,78.28
2022-09-27T12:42:07.295Z,78.12
2022-09-27T12:47:07.214Z,80.19
2022-09-27T12:52:07.144Z,79.27
2022-09-27T12:57:07.101Z,77.30
2022-09-27T13:02:07.043Z,74.96
2022-09-27T13:07:06.964Z,75.95
2022-09-27T13:12:06.884Z,75.37
2022-09-27T13:17:06.815Z,76.11
2022-09-27T13:22:06.708Z,72.41
2022-09-27T13:27:06.657Z,71.80
2022-09-27T13:32:06.628Z,71.09
2022-09-27T13:37:06.504Z,72.45
2022-09-27T13:42:06.471Z,69.47
2022-09-27T13:47:06.381Z,68.79
2022-09-27T13:52:06.363Z,70.18
2022-09-27T13:57:06.324Z,70.38
2022-09-27T14:02:06.273Z,69.67
2022-09-27T14:07:06.136Z,70.31
2022-09-27T14:12:06.055Z,72.38
2022-09-27T14:17:09.185Z,73.54
2022-09-27T14:22:05.948Z,73.80
2022-09-27T14:27:05.843Z,72.01
2022-09-27T14:32:05.785Z,72.86
2022-09-27T14:37:05.710Z,75.06
2022-09-27T14:42:05.630Z,73.84
2022-09-27T14:47:05.570Z,70.92
2022-09-27T14:52:05.504Z,72.34
2022-09-27T14:57:05.446Z,75.16
2022-09-27T15:02:05.379Z,82.21
2022-09-27T15:07:05.367Z,86.02
2022-09-27T15:12:05.293Z,87.08
2022-09-27T15:17:05.184Z,87.32
2022-09-27T15:22:05.365Z,86.91
2022-09-27T15:27:05.060Z,87.06
2022-09-27T15:32:05.005Z,89.11
2022-09-27T15:37:04.903Z,88.59
2022-09-27T15:42:04.863Z,87.43
2022-09-27T15:47:04.772Z,87.32
2022-09-27T15:52:04.785Z,86.71
2022-09-27T16:00:25.097Z,88.04
2022-09-27T16:05:24.924Z,87.73
2022-09-27T16:10:24.897Z,88.55
2022-09-27T16:15:24.840Z,88.35
2022-09-27T16:20:24.756Z,87.37
2022-09-27T16:25:24.712Z,87.88
2022-09-27T16:30:24.625Z,89.00
2022-09-27T16:35:24.608Z,90.64
2022-09-27T16:40:24.522Z,89.45
2022-09-27T16:45:24.477Z,87.79
2022-09-27T16:50:24.360Z,87.43
2022-09-27T16:55:24.260Z,88.39
2022-09-27T17:00:24.324Z,88.12
2022-09-27T17:05:24.158Z,89.76
2022-09-27T17:10:51.184Z,89.56
2022-09-27T17:15:44.102Z,88.94
2022-09-27T17:20:44.020Z,89.04
2022-09-27T17:25:43.984Z,87.76
2022-09-27T17:30:43.923Z,88.98
2022-09-27T17:35:43.833Z,90.42
2022-09-27T17:40:43.836Z,89.19
2022-09-27T17:45:43.702Z,91.08
2022-09-27T17:50:43.592Z,91.80
2022-09-27T17:55:43.555Z,91.38
2022-09-27T18:00:43.618Z,92.55
2022-09-27T18:05:43.409Z,93.13
2022-09-27T18:10:43.353Z,93.23
2022-09-27T18:15:43.340Z,91.80
2022-09-27T18:20:43.251Z,92.93
2022-09-27T18:25:43.165Z,92.21
2022-09-27T18:30:43.099Z,92.72
2022-09-27T18:35:43.040Z,93.23
2022-09-27T18:40:56.017Z,94.15
2022-09-27T18:45:43.943Z,93.27
2022-09-27T18:50:42.874Z,92.86
2022-09-27T18:55:42.749Z,91.63
2022-09-27T19:00:42.782Z,91.74
2022-09-27T19:05:42.639Z,91.42
2022-09-27T19:10:42.564Z,91.53
2022-09-27T19:15:42.544Z,91.42
2022-09-27T19:20:42.457Z,91.22
2022-09-27T19:25:42.398Z,91.94
2022-09-27T19:30:42.311Z,90.77
2022-09-27T19:35:42.592Z,93.74
2022-09-27T19:40:42.235Z,91.59
2022-09-27T19:45:42.136Z,91.18
2022-09-27T19:50:42.046Z,90.26
2022-09-27T19:55:41.993Z,89.48
2022-09-27T20:00:41.949Z,90.77
2022-09-27T20:05:41.838Z,91.02
2022-09-27T20:10:41.771Z,92.35
2022-09-27T20:15:41.793Z,92.46
2022-09-27T20:20:41.649Z,91.94
2022-09-27T20:25:43.147Z,91.63
2022-09-27T20:30:41.547Z,94.30
2022-09-27T20:35:41.565Z,91.63
2022-09-27T20:40:41.485Z,90.50
2022-09-27T20:45:41.375Z,90.50
2022-09-27T20:50:41.302Z,89.37
2022-09-27T20:55:41.238Z,88.62
2022-09-27T21:00:41.147Z,88.00
2022-09-27T21:05:41.085Z,87.38
2022-09-27T21:10:41.011Z,88.82
2022-09-27T21:15:40.936Z,88.41
2022-09-27T21:20:40.850Z,88.96
2022-09-27T21:25:40.801Z,89.48
2022-09-27T21:30:40.733Z,89.48
2022-09-27T21:35:40.679Z,89.37
2022-09-27T21:40:40.670Z,89.37
2022-09-27T21:45:40.532Z,89.48
2022-09-27T21:50:40.494Z,89.27
2022-09-27T21:55:40.405Z,88.76
2022-09-27T22:00:40.371Z,88.51
2022-09-27T22:05:40.256Z,89.95
2022-09-27T22:10:40.192Z,88.41
2022-09-27T22:15:40.119Z,88.41
2022-09-27T22:20:40.116Z,88.82
2022-09-27T22:25:40.003Z,89.54
2022-09-27T22:30:39.958Z,89.03
2022-09-27T22:35:39.891Z,89.75
2022-09-27T22:40:39.872Z,90.36
2022-09-27T22:45:39.764Z,90.05
2022-09-27T22:50:39.683Z,90.56
2022-09-27T22:55:39.639Z,91.44
2022-09-27T23:00:39.583Z,91.35
2022-09-27T23:05:39.489Z,94.11
2022-09-27T23:10:39.433Z,93.49
2022-09-27T23:15:39.364Z,93.95
2022-09-27T23:20:39.278Z,94.05
2022-09-27T23:25:39.267Z,94.05
2022-09-27T23:30:39.188Z,94.26
2022-09-27T23:35:39.101Z,94.05
2022-09-27T23:40:39.041Z,95.39
2022-09-27T23:45:39.021Z,96.00
2022-09-27T23:50:38.942Z,95.90
2022-09-27T23:55:38.809Z,97.03
